Time;durP1;ratioP1;P1;durP2;ratioP2;P2;SDS_P1;SDS_P2;PMS_P1;PMS_P2;Temp;Humidity;BMP_temperature;BMP_pressure;BME280_temperature;BME280_humidity;BME280_pressure;Samples;Min_cycle;Max_cycle;Signal;HPM_P1;HPM_P2
2022/05/17 00:01:03;;;;;;;7.43;2.25;;;;;;;26.07;39.83;101508.94;5056325;28;20029;-44
2022/05/17 00:03:32;;;;;;;4.53;1.77;;;;;;;26.07;39.74;101512.44;5056055;28;20029;-45
2022/05/17 00:06:01;;;;;;;3.72;1.80;;;;;;;26.04;39.71;101504.53;5055823;28;20032;-44
2022/05/17 00:08:29;;;;;;;5.53;1.65;;;;;;;26.00;39.79;101489.59;5056104;28;20453;-43
2022/05/17 00:10:58;;;;;;;5.28;1.63;;;;;;;25.97;39.89;101496.56;5056081;28;20091;-46
2022/05/17 00:13:27;;;;;;;5.78;2.30;;;;;;;25.88;39.83;101492.94;5054654;28;20032;-43
2022/05/17 00:15:55;;;;;;;4.57;1.80;;;;;;;25.89;39.92;101491.19;5054944;28;20497;-45
2022/05/17 00:18:24;;;;;;;4.55;1.65;;;;;;;25.97;39.90;101493.94;5056009;28;20021;-43
2022/05/17 00:20:53;;;;;;;4.28;1.70;;;;;;;26.02;39.68;101508.00;5055821;28;20486;-43
2022/05/17 00:23:21;;;;;;;5.30;1.65;;;;;;;25.96;39.68;101494.78;5054580;28;20073;-44
2022/05/17 00:25:50;;;;;;;6.45;2.40;;;;;;;25.97;39.78;101497.41;5054394;28;20029;-44
2022/05/17 00:28:19;;;;;;;3.90;1.50;;;;;;;25.98;39.84;101495.69;5055405;28;20045;-43
2022/05/17 00:30:49;;;;;;;8.95;1.80;;;;;;;26.01;39.61;101504.50;5054343;28;20071;-44
2022/05/17 00:33:18;;;;;;;4.10;1.65;;;;;;;26.02;39.72;101508.88;5055793;28;20049;-43
2022/05/17 00:35:46;;;;;;;4.22;1.33;;;;;;;26.02;39.76;101505.34;5055733;28;20044;-44
2022/05/17 00:38:15;;;;;;;4.55;1.70;;;;;;;26.07;39.65;101514.19;5054638;28;20025;-46
2022/05/17 00:40:44;;;;;;;5.32;1.73;;;;;;;26.01;39.83;101501.88;5070542;28;20390;-43
2022/05/17 00:43:15;;;;;;;3.78;1.35;;;;;;;26.07;39.72;101506.31;5055672;28;20506;-42
2022/05/17 00:45:49;;;;;;;6.47;1.30;;;;;;;26.03;39.37;101502.78;5055285;28;20031;-45
2022/05/17 00:48:18;;;;;;;3.50;1.63;;;;;;;26.03;39.34;101493.97;5055191;28;20029;-46
2022/05/17 00:50:49;;;;;;;5.45;1.85;;;;;;;26.00;39.68;101489.59;5037689;28;20032;-43
2022/05/17 00:53:20;;;;;;;5.00;1.40;;;;;;;25.98;39.67;101493.06;5053999;28;20070;-45
2022/05/17 00:55:53;;;;;;;5.85;1.65;;;;;;;25.93;39.87;101482.47;5053530;28;20024;-43
2022/05/17 00:58:34;;;;;;;2.50;1.60;;;;;;;25.98;39.49;101483.41;5054005;28;20032;-45
2022/05/17 01:01:06;;;;;;;3.58;1.42;;;;;;;25.93;39.64;101491.25;5054994;28;20047;-46
2022/05/17 01:03:42;;;;;;;2.63;1.30;;;;;;;25.96;39.49;101492.16;5053524;28;20055;-44
2022/05/17 01:06:10;;;;;;;3.45;1.40;;;;;;;25.99;39.46;101500.97;5053411;28;20562;-45
2022/05/17 01:08:39;;;;;;;3.72;1.40;;;;;;;25.86;39.64;101471.00;5053713;28;20044;-43
2022/05/17 01:11:07;;;;;;;5.55;1.60;;;;;;;26.00;39.53;101502.72;5053546;28;20021;-44
2022/05/17 01:16:24;;;;;;;4.32;1.83;;;;;;;25.98;39.59;101501.81;5047185;28;20487;-45
2022/05/17 01:18:53;;;;;;;3.17;1.48;;;;;;;25.97;39.55;101494.78;5053565;28;20017;-43
2022/05/17 01:21:22;;;;;;;3.53;1.42;;;;;;;25.96;39.63;101494.78;5054856;28;20038;-45
2022/05/17 01:23:51;;;;;;;5.55;2.40;;;;;;;25.96;39.48;101489.53;5053081;28;20409;-43
2022/05/17 01:26:23;;;;;;;3.00;1.20;;;;;;;25.99;39.36;101489.53;5054641;28;20079;-43
2022/05/17 01:28:51;;;;;;;3.28;1.25;;;;;;;25.97;39.24;101486.03;5053386;28;20493;-43
2022/05/17 01:31:20;;;;;;;3.35;1.10;;;;;;;25.97;39.44;101483.41;5053327;28;20025;-43
2022/05/17 01:33:49;;;;;;;4.15;1.60;;;;;;;25.96;39.34;101479.88;5053399;28;20028;-43
2022/05/17 01:36:21;;;;;;;5.38;1.30;;;;;;;25.93;39.28;101474.56;5052971;28;20025;-44
2022/05/17 01:38:51;;;;;;;3.53;1.35;;;;;;;25.91;39.50;101464.06;5054369;28;20032;-44
2022/05/17 01:41:21;;;;;;;5.68;1.80;;;;;;;25.88;39.58;101466.63;5037006;28;20029;-45
2022/05/17 01:43:51;;;;;;;2.88;1.20;;;;;;;25.91;39.24;101471.03;5054366;28;20430;-44
2022/05/17 01:46:19;;;;;;;3.65;1.48;;;;;;;25.92;39.36;101464.94;5052388;28;20119;-43
2022/05/17 01:48:48;;;;;;;5.63;1.58;;;;;;;25.86;39.31;101463.09;5052829;28;20035;-46
2022/05/17 01:51:16;;;;;;;5.78;1.52;;;;;;;25.83;39.19;101454.31;5053861;28;20021;-43
2022/05/17 01:53:45;;;;;;;3.72;1.05;;;;;;;25.88;39.35;101455.25;5053871;28;20108;-45
2022/05/17 01:56:14;;;;;;;2.33;1.30;;;;;;;25.91;39.24;101466.69;5054221;28;20021;-45
2022/05/17 01:58:42;;;;;;;3.85;1.27;;;;;;;25.89;39.31;101470.16;5054132;28;20021;-46
2022/05/17 02:01:12;;;;;;;2.50;1.02;;;;;;;25.87;39.27;101470.13;5052821;28;20035;-44
2022/05/17 02:03:40;;;;;;;3.42;1.05;;;;;;;25.91;39.35;101474.56;5070060;28;20080;-46
2022/05/17 02:06:08;;;;;;;5.32;1.50;;;;;;;25.92;39.23;101476.34;5053833;28;20029;-43
2022/05/17 02:08:37;;;;;;;3.45;1.30;;;;;;;25.82;39.65;101463.06;5069332;28;20036;-45
2022/05/17 02:11:05;;;;;;;2.35;1.30;;;;;;;25.91;39.04;101474.56;5052484;28;20061;-46
2022/05/17 02:13:34;;;;;;;4.55;1.05;;;;;;;25.87;39.27;101466.63;5053468;28;20035;-43
2022/05/17 02:16:06;;;;;;;3.85;1.20;;;;;;;25.92;39.30;101475.44;5053079;28;20475;-45
2022/05/17 02:18:35;;;;;;;3.05;1.40;;;;;;;25.91;39.08;101479.81;5054039;28;20529;-44
2022/05/17 02:21:04;;;;;;;2.80;1.23;;;;;;;25.92;38.82;101478.97;5053557;28;20029;-43
2022/05/17 02:23:32;;;;;;;3.30;1.30;;;;;;;25.93;39.02;101480.72;5053507;28;20523;-46
2022/05/17 02:26:01;;;;;;;4.70;1.20;;;;;;;25.87;38.85;101464.88;5052054;28;20025;-43
2022/05/17 02:28:30;;;;;;;3.10;1.45;;;;;;;25.92;39.18;101464.94;5052545;28;20063;-44
2022/05/17 02:30:58;;;;;;;3.15;1.20;;;;;;;25.88;39.21;101469.28;5053223;28;20372;-44
2022/05/17 02:33:27;;;;;;;3.47;1.30;;;;;;;25.86;38.98;101463.09;5052073;28;20029;-44
2022/05/17 02:35:55;;;;;;;2.92;1.30;;;;;;;25.87;39.42;101470.13;5052970;28;20029;-45
2022/05/17 02:38:24;;;;;;;3.00;1.17;;;;;;;25.80;39.30;101463.06;5053278;28;20025;-45
2022/05/17 02:40:52;;;;;;;2.83;0.95;;;;;;;25.87;39.17;101467.50;5051952;28;20033;-45
2022/05/17 02:43:21;;;;;;;5.22;1.40;;;;;;;25.88;38.89;101460.53;5053452;28;20021;-45
2022/05/17 02:45:49;;;;;;;3.28;1.13;;;;;;;25.88;38.91;101452.63;5035712;28;20108;-43
2022/05/17 02:48:18;;;;;;;4.57;1.40;;;;;;;25.84;39.07;101445.56;5051910;28;20029;-45
2022/05/17 02:50:47;;;;;;;5.93;1.17;;;;;;;25.90;38.85;101451.78;5053186;28;20593;-44
2022/05/17 02:53:15;;;;;;;2.13;1.05;;;;;;;25.82;38.97;101442.91;5051970;28;20520;-43
2022/05/17 02:55:44;;;;;;;3.42;1.55;;;;;;;25.83;38.88;101451.69;5053430;28;20028;-43
2022/05/17 02:58:12;;;;;;;2.22;1.20;;;;;;;25.80;39.03;101439.41;5051855;28;20031;-43
2022/05/17 03:00:42;;;;;;;2.45;1.23;;;;;;;25.84;38.78;101435.91;5053405;28;20033;-45
2022/05/17 03:03:10;;;;;;;3.42;1.17;;;;;;;25.84;38.91;101438.53;5053274;28;20029;-47
2022/05/17 03:05:39;;;;;;;3.22;1.60;;;;;;;25.79;39.04;101435.88;5052801;28;20064;-46
2022/05/17 03:08:07;;;;;;;4.13;1.63;;;;;;;25.81;39.11;101433.28;5051849;28;20025;-46
2022/05/17 03:10:36;;;;;;;2.20;1.17;;;;;;;25.81;39.14;101425.41;5053132;28;20036;-46
2022/05/17 03:13:04;;;;;;;3.30;1.20;;;;;;;25.80;38.81;101428.88;5052978;28;20021;-49
2022/05/17 03:15:33;;;;;;;2.45;1.50;;;;;;;25.74;39.11;101424.41;5053022;28;20017;-49
2022/05/17 03:18:02;;;;;;;5.75;1.40;;;;;;;25.73;39.25;101427.03;5052955;28;20021;-46
2022/05/17 03:20:30;;;;;;;2.35;0.95;;;;;;;25.72;38.96;101414.75;5052882;28;20025;-44
2022/05/17 03:22:59;;;;;;;1.42;1.05;;;;;;;25.68;38.74;101429.59;5051480;28;20052;-46
2022/05/17 03:25:28;;;;;;;3.15;1.50;;;;;;;25.72;38.89;101425.25;5052114;28;20407;-45
2022/05/17 03:27:57;;;;;;;4.35;1.48;;;;;;;25.61;38.93;101419.84;5054563;28;20033;-48
2022/05/17 03:30:25;;;;;;;4.85;1.83;;;;;;;25.55;39.03;101411.91;5056717;28;20029;-45
2022/05/17 03:32:54;;;;;;;2.40;1.40;;;;;;;25.55;39.12;101409.28;5056752;28;20094;-50
2022/05/17 03:35:26;;;;;;;2.30;1.20;;;;;;;25.54;39.47;101412.78;5056734;28;20071;-49
2022/05/17 03:37:54;;;;;;;2.47;1.20;;;;;;;25.52;39.51;101410.09;5056632;28;20031;-48
2022/05/17 03:40:23;;;;;;;4.72;1.00;;;;;;;25.54;39.07;101400.50;5056503;28;20033;-49
2022/05/17 03:42:52;;;;;;;2.80;1.17;;;;;;;25.57;39.33;101404.91;5056027;28;20463;-50
2022/05/17 03:45:20;;;;;;;5.22;1.42;;;;;;;25.57;39.46;101397.03;5056440;28;20055;-48
2022/05/17 03:47:49;;;;;;;2.90;1.30;;;;;;;25.60;38.90;101400.59;5056402;28;20029;-46
2022/05/17 03:50:18;;;;;;;3.40;1.30;;;;;;;25.55;39.39;101396.16;5056702;28;20483;-46
2022/05/17 03:52:46;;;;;;;2.88;1.25;;;;;;;25.55;39.06;101397.03;5056456;28;20172;-50
2022/05/17 03:55:15;;;;;;;2.63;1.35;;;;;;;25.52;39.23;101404.84;5056372;28;20378;-48
2022/05/17 03:57:44;;;;;;;3.65;1.33;;;;;;;25.51;39.03;101395.22;5056403;28;20032;-45
2022/05/17 04:00:13;;;;;;;2.58;1.38;;;;;;;25.51;39.33;101389.09;5056270;28;20386;-47
2022/05/17 04:02:42;;;;;;;2.70;1.38;;;;;;;25.47;39.13;101377.66;5056334;28;20032;-48
2022/05/17 04:05:10;;;;;;;1.60;1.02;;;;;;;25.55;39.22;101393.53;5055908;28;20024;-47
2022/05/17 04:07:39;;;;;;;2.85;1.58;;;;;;;25.57;39.01;101397.03;5056026;28;20040;-47
2022/05/17 04:10:10;;;;;;;3.88;1.40;;;;;;;25.56;39.20;101395.28;5056183;28;20113;-44
2022/05/17 04:12:39;;;;;;;1.27;0.98;;;;;;;25.54;39.21;101387.38;5054786;28;20071;-47
2022/05/17 04:15:09;;;;;;;2.55;1.30;;;;;;;25.57;39.32;101387.41;5055753;28;20029;-46
2022/05/17 04:17:38;;;;;;;2.15;1.00;;;;;;;25.54;39.01;101383.88;5055760;28;20483;-48
2022/05/17 04:20:07;;;;;;;1.73;1.00;;;;;;;25.55;39.17;101391.78;5055352;28;20029;-48
2022/05/17 04:22:35;;;;;;;1.20;0.88;;;;;;;25.56;39.02;101387.41;5056299;28;20108;-45
2022/05/17 04:25:04;;;;;;;3.20;1.20;;;;;;;25.60;38.94;101379.59;5055354;28;20486;-45
2022/05/17 04:27:32;;;;;;;2.20;1.20;;;;;;;25.61;38.97;101380.44;5054110;28;20033;-47
2022/05/17 04:30:01;;;;;;;2.28;0.90;;;;;;;25.54;38.90;101378.63;5055750;28;20115;-48
2022/05/17 04:32:29;;;;;;;4.47;1.38;;;;;;;25.47;38.93;101378.53;5055449;28;20032;-46
2022/05/17 04:34:59;;;;;;;3.38;1.00;;;;;;;25.49;39.35;101381.16;5055400;28;20029;-50
2022/05/17 04:37:28;;;;;;;1.92;1.20;;;;;;;25.50;39.28;101387.31;5055383;28;20431;-44
2022/05/17 04:39:57;;;;;;;2.17;1.40;;;;;;;25.51;39.09;101384.69;5054304;28;20024;-49
2022/05/17 04:42:26;;;;;;;2.58;1.20;;;;;;;25.52;39.14;101389.09;5054437;28;20032;-48
2022/05/17 04:44:54;;;;;;;2.75;1.30;;;;;;;25.52;38.92;101389.09;5055130;28;20033;-48
2022/05/17 04:47:23;;;;;;;2.08;1.08;;;;;;;25.52;39.07;101386.47;5055189;28;20033;-49
2022/05/17 04:49:51;;;;;;;2.92;1.02;;;;;;;25.51;39.23;101387.31;5054120;28;20064;-47
2022/05/17 04:52:20;;;;;;;2.35;1.20;;;;;;;25.50;39.43;101387.31;5055391;28;20052;-44
2022/05/17 04:54:48;;;;;;;3.53;1.55;;;;;;;25.51;39.15;101384.69;5055331;28;20025;-47
2022/05/17 04:57:17;;;;;;;3.33;1.20;;;;;;;25.53;39.06;101377.72;5054982;28;20104;-47
2022/05/17 04:59:45;;;;;;;3.03;1.27;;;;;;;25.47;39.10;101378.53;5055213;28;20090;-44
2022/05/17 05:02:14;;;;;;;3.67;1.33;;;;;;;25.43;39.60;101370.59;5055280;28;20035;-51
2022/05/17 05:04:42;;;;;;;3.25;1.40;;;;;;;25.35;39.47;101365.22;5054861;28;20498;-46
2022/05/17 05:07:10;;;;;;;3.17;1.20;;;;;;;25.37;39.24;101380.97;5054647;28;20037;-43
2022/05/17 05:09:38;;;;;;;1.67;1.20;;;;;;;25.42;39.02;101376.72;5054915;28;20028;-48
2022/05/17 05:12:07;;;;;;;2.17;1.38;;;;;;;25.43;39.18;101379.34;5054825;28;20032;-47
2022/05/17 05:14:35;;;;;;;3.55;1.55;;;;;;;25.40;39.52;101384.53;5054841;28;20117;-47
2022/05/17 05:17:03;;;;;;;5.20;1.40;;;;;;;25.40;39.26;101379.25;5054973;28;20486;-49
2022/05/17 05:19:32;;;;;;;3.25;1.52;;;;;;;25.44;39.15;101383.75;5053590;28;20037;-46
2022/05/17 05:22:00;;;;;;;7.93;1.70;;;;;;;25.47;39.24;101378.53;5054677;28;20100;-43
2022/05/17 05:24:29;;;;;;;3.15;1.75;;;;;;;25.49;39.38;101381.16;5054073;28;20045;-45
2022/05/17 05:26:59;;;;;;;1.92;1.00;;;;;;;25.52;39.19;101386.47;5054476;28;20073;-50
2022/05/17 05:29:28;;;;;;;4.20;1.77;;;;;;;25.46;39.48;101381.16;5054842;28;20033;-49
2022/05/17 05:31:57;;;;;;;3.22;1.50;;;;;;;25.35;39.17;101362.59;5054433;28;20033;-46
2022/05/17 05:34:27;;;;;;;3.25;1.63;;;;;;;25.48;39.47;101389.94;5054439;28;20024;-45
2022/05/17 05:36:56;;;;;;;9.32;1.65;;;;;;;25.50;39.28;101384.69;5054369;28;20028;-49
2022/05/17 05:39:25;;;;;;;7.30;1.58;;;;;;;25.51;39.47;101373.31;5054455;28;20021;-48
2022/05/17 05:41:53;;;;;;;5.78;1.45;;;;;;;25.53;39.08;101377.72;5054045;28;20029;-47
2022/05/17 05:44:22;;;;;;;6.22;1.70;;;;;;;25.54;39.12;101381.25;5054057;28;20025;-48
2022/05/17 05:46:51;;;;;;;5.35;1.60;;;;;;;25.54;39.24;101386.50;5054493;28;20028;-50
2022/05/17 05:49:19;;;;;;;3.58;1.48;;;;;;;25.57;39.06;101389.16;5054307;28;20074;-43
2022/05/17 05:51:48;;;;;;;3.78;1.52;;;;;;;25.56;38.92;101382.16;5053633;28;20028;-44
2022/05/17 05:54:17;;;;;;;7.10;1.50;;;;;;;25.51;38.97;101374.19;5054043;28;20110;-48
2022/05/17 05:56:45;;;;;;;8.32;1.95;;;;;;;25.49;39.31;101375.91;5053866;28;20090;-51
2022/05/17 05:59:14;;;;;;;6.78;1.70;;;;;;;25.45;39.52;101366.25;5054280;28;20056;-46
2022/05/17 06:01:43;;;;;;;6.38;1.70;;;;;;;25.59;39.13;101375.19;5053720;28;20617;-43
2022/05/17 06:04:11;;;;;;;8.05;2.05;;;;;;;25.71;38.84;101373.56;5053977;28;20037;-47
2022/05/17 06:06:40;;;;;;;5.05;1.23;;;;;;;25.72;39.35;101368.34;5053688;28;20025;-50
2022/05/17 06:09:08;;;;;;;5.22;1.70;;;;;;;25.74;39.26;101365.72;5053746;28;20107;-46
2022/05/17 06:11:37;;;;;;;7.03;1.73;;;;;;;25.67;39.07;101356.88;5053828;28;20386;-50
2022/05/17 06:14:05;;;;;;;7.57;1.63;;;;;;;25.68;39.00;101353.41;5053749;28;20374;-44
2022/05/17 06:16:34;;;;;;;7.43;1.60;;;;;;;25.72;39.35;101359.56;5053981;28;20424;-46
2022/05/17 06:19:03;;;;;;;4.20;1.75;;;;;;;25.77;38.99;101347.38;5053734;28;20066;-51
2022/05/17 06:21:31;;;;;;;6.47;1.77;;;;;;;25.91;38.82;101347.50;5053537;28;20029;-46
2022/05/17 06:24:01;;;;;;;7.60;1.98;;;;;;;25.83;39.06;101355.31;5052223;28;20045;-46
2022/05/17 06:26:29;;;;;;;9.90;1.67;;;;;;;25.75;39.46;101352.59;5052952;28;20037;-49
2022/05/17 06:28:58;;;;;;;2.72;1.25;;;;;;;25.71;39.36;101349.91;5053254;28;20544;-47
2022/05/17 06:31:26;;;;;;;5.32;1.92;;;;;;;25.71;38.80;101340.31;5068727;28;20035;-49
2022/05/17 06:33:55;;;;;;;6.57;1.65;;;;;;;25.78;39.18;101351.78;5053320;28;20467;-43
2022/05/17 06:36:22;;;;;;;9.40;1.83;;;;;;;25.82;38.77;101356.16;5053125;28;20032;-47
2022/05/17 06:38:51;;;;;;;5.95;1.50;;;;;;;25.86;38.81;101357.97;5053410;28;20033;-45
2022/05/17 06:41:20;;;;;;;5.38;1.67;;;;;;;25.96;38.75;101364.22;5053634;28;20128;-44
2022/05/17 06:43:48;;;;;;;5.38;1.67;;;;;;;26.12;38.67;101359.16;5053138;28;20382;-44
2022/05/17 06:46:16;;;;;;;10.48;1.80;;;;;;;26.07;38.52;101361.72;5053141;28;20029;-47
2022/05/17 06:48:44;;;;;;;7.78;1.60;;;;;;;26.16;38.63;101369.72;5053402;28;20025;-47
2022/05/17 06:51:12;;;;;;;8.35;2.08;;;;;;;26.24;38.26;101367.16;5053486;28;20021;-49
2022/05/17 06:53:41;;;;;;;7.38;1.73;;;;;;;26.15;38.63;101367.06;5053296;28;20090;-46
2022/05/17 06:56:10;;;;;;;5.72;2.13;;;;;;;26.04;39.24;101372.19;5053004;28;20033;-45
2022/05/17 06:58:39;;;;;;;11.57;2.08;;;;;;;25.92;39.12;101365.03;5053050;28;20098;-44
2022/05/17 07:01:08;;;;;;;6.28;1.77;;;;;;;25.84;39.64;101372.84;5053103;28;20036;-44
2022/05/17 07:03:36;;;;;;;6.38;2.08;;;;;;;25.77;39.62;101373.66;5054923;28;20079;-48
2022/05/17 07:06:05;;;;;;;5.63;1.73;;;;;;;25.77;39.73;101368.41;5056830;28;20029;-49
2022/05/17 07:08:33;;;;;;;4.80;1.60;;;;;;;25.72;39.72;101367.44;5057080;28;20025;-44
2022/05/17 07:13:49;;;;;;;8.40;1.88;;;;;;;25.81;39.63;101364.94;5050502;28;20120;-49
2022/05/17 07:16:17;;;;;;;4.82;2.05;;;;;;;25.77;40.04;101361.38;5056906;28;20367;-48
2022/05/17 07:18:47;;;;;;;5.97;1.60;;;;;;;25.83;39.90;101354.44;5057010;28;20032;-48
2022/05/17 07:21:15;;;;;;;8.20;2.08;;;;;;;25.77;39.94;101344.75;5056824;28;20117;-48
2022/05/17 07:23:43;;;;;;;5.88;2.08;;;;;;;25.85;39.90;101342.19;5056664;28;20049;-44
2022/05/17 07:26:13;;;;;;;5.97;2.03;;;;;;;25.88;40.11;101352.75;5055979;28;20556;-47
2022/05/17 07:28:43;;;;;;;5.22;1.60;;;;;;;25.98;39.95;101343.22;5055785;28;20029;-46
2022/05/17 07:31:13;;;;;;;5.60;2.13;;;;;;;26.11;39.78;101346.84;5056769;28;20359;-44
2022/05/17 07:33:41;;;;;;;8.27;2.00;;;;;;;26.24;39.65;101349.66;5055110;28;20541;-49
2022/05/17 07:36:10;;;;;;;7.68;1.95;;;;;;;26.29;39.56;101347.06;5056563;28;20029;-47
2022/05/17 07:38:38;;;;;;;6.88;2.00;;;;;;;26.33;39.56;101340.06;5056402;28;20456;-43
2022/05/17 07:41:07;;;;;;;6.75;2.70;;;;;;;26.37;39.54;101347.13;5056604;28;20032;-45
2022/05/17 07:43:36;;;;;;;7.50;1.77;;;;;;;26.39;39.60;101348.03;5056532;28;20021;-46
2022/05/17 07:46:03;;;;;;;6.32;2.10;;;;;;;26.32;39.58;101343.56;5056358;28;20021;-49
2022/05/17 07:48:30;;;;;;;7.10;1.88;;;;;;;26.40;39.36;101349.78;5056135;28;20524;-46
2022/05/17 07:50:59;;;;;;;5.97;2.05;;;;;;;26.29;39.69;101356.72;5056308;28;20025;-47
2022/05/17 07:53:27;;;;;;;5.80;2.25;;;;;;;26.21;39.86;101348.75;5056492;28;20155;-45
2022/05/17 07:55:56;;;;;;;5.93;1.92;;;;;;;26.29;39.71;101352.31;5056172;28;20548;-47
2022/05/17 07:58:25;;;;;;;5.80;2.30;;;;;;;26.36;39.69;101350.63;5056392;28;20115;-44
2022/05/17 08:00:53;;;;;;;5.20;2.33;;;;;;;26.45;39.72;101352.44;5055958;28;20423;-45
2022/05/17 08:03:22;;;;;;;6.60;1.77;;;;;;;26.44;39.53;101346.31;5056010;28;20029;-44
2022/05/17 08:05:52;;;;;;;4.75;2.40;;;;;;;26.45;39.53;101337.56;5055091;28;20108;-48
2022/05/17 08:08:21;;;;;;;8.73;2.53;;;;;;;26.47;39.62;101334.94;5055691;28;20033;-50
2022/05/17 08:10:49;;;;;;;8.82;2.55;;;;;;;26.49;39.67;101343.72;5055308;28;20040;-44
2022/05/17 08:13:19;;;;;;;4.50;1.63;;;;;;;26.44;39.64;101334.91;5055427;28;20025;-44
2022/05/17 08:15:48;;;;;;;5.18;1.90;;;;;;;26.48;39.64;101326.16;5055803;28;20475;-48
2022/05/17 08:18:18;;;;;;;8.20;2.20;;;;;;;26.48;39.62;101319.16;5055850;28;20470;-46
2022/05/17 08:20:46;;;;;;;5.07;2.03;;;;;;;26.45;39.27;101320.88;5056193;28;20036;-43
2022/05/17 08:23:15;;;;;;;9.82;2.33;;;;;;;26.65;39.25;101321.03;5056193;28;20040;-43
2022/05/17 08:28:31;;;;;;;5.43;1.90;;;;;;;26.64;39.30;101321.94;5047603;28;20048;-44
2022/05/17 08:30:59;;;;;;;4.63;1.98;;;;;;;26.68;39.29;101318.41;5054643;28;20025;-45
2022/05/17 08:33:30;;;;;;;7.03;2.05;;;;;;;26.61;39.41;101322.75;5055538;28;20033;-44
2022/05/17 08:36:01;;;;;;;5.47;1.95;;;;;;;26.58;39.47;101311.34;5055636;28;20026;-45
2022/05/17 08:38:32;;;;;;;8.20;2.20;;;;;;;26.71;39.21;101315.81;5054376;28;20028;-45
2022/05/17 08:41:20;;;;;;;7.72;2.28;;;;;;;26.76;39.19;101316.75;5054359;28;20393;-46
2022/05/17 08:44:13;;;;;;;6.75;2.10;;;;;;;26.80;39.28;101318.56;5048562;28;20387;-46
2022/05/17 08:47:11;;;;;;;5.10;2.45;;;;;;;26.71;39.36;101304.44;5047399;28;20120;-46
2022/05/17 08:49:48;;;;;;;6.13;2.17;;;;;;;26.79;39.38;101319.44;5048427;28;20405;-44
2022/05/17 08:52:20;;;;;;;9.07;2.20;;;;;;;26.87;39.36;101321.22;5055468;28;20387;-43
2022/05/17 08:55:18;;;;;;;5.07;2.10;;;;;;;26.89;39.24;101311.59;5055241;28;20028;-46
2022/05/17 08:57:50;;;;;;;4.75;1.92;;;;;;;26.91;39.15;101320.38;5049384;28;20394;-45
2022/05/17 09:00:22;;;;;;;4.43;2.13;;;;;;;26.93;39.34;101319.50;5055415;28;20029;-45
2022/05/17 09:02:58;;;;;;;6.95;2.10;;;;;;;26.97;39.15;101323.06;5055300;28;20053;-44
2022/05/17 09:05:28;;;;;;;7.40;2.05;;;;;;;27.06;39.00;101320.47;5053118;28;20029;-46
2022/05/17 09:08:00;;;;;;;4.82;2.35;;;;;;;27.02;39.15;101321.31;5054641;28;20029;-45
2022/05/17 09:10:41;;;;;;;7.35;2.00;;;;;;;27.10;39.01;101316.97;5053752;28;20057;-46
2022/05/17 09:13:15;;;;;;;11.48;2.47;;;;;;;27.06;39.04;101330.09;5070289;28;20190;-44
2022/05/17 09:15:45;;;;;;;6.15;2.40;;;;;;;26.99;39.31;101310.75;5053799;28;20047;-44
2022/05/17 09:18:17;;;;;;;8.77;2.22;;;;;;;27.04;38.95;101309.03;5054962;28;20029;-45
2022/05/17 09:20:45;;;;;;;5.45;2.67;;;;;;;27.10;39.18;101313.44;5053663;28;20100;-45
2022/05/17 09:23:14;;;;;;;8.38;2.40;;;;;;;27.13;39.27;101309.09;5054703;28;20032;-44
2022/05/17 09:25:46;;;;;;;5.22;2.35;;;;;;;27.07;39.28;101316.97;5053773;28;20052;-44
2022/05/17 09:28:20;;;;;;;4.63;2.20;;;;;;;27.14;39.19;101313.47;5053396;28;20033;-47
2022/05/17 09:30:49;;;;;;;6.68;2.50;;;;;;;27.12;39.11;101307.34;5054786;28;20099;-43
2022/05/17 09:33:21;;;;;;;10.27;2.35;;;;;;;27.24;39.06;101310.88;5070461;28;20040;-43
2022/05/17 09:35:57;;;;;;;6.93;2.28;;;;;;;27.27;38.89;101316.19;5054677;28;20451;-46
2022/05/17 09:38:25;;;;;;;9.60;2.28;;;;;;;27.27;38.94;101317.03;5053462;28;20020;-46
2022/05/17 09:40:54;;;;;;;5.28;2.47;;;;;;;27.25;38.91;101307.38;5054314;28;20112;-45
2022/05/17 09:43:43;;;;;;;8.27;2.30;;;;;;;27.29;38.59;101302.13;5054696;28;20032;-47
2022/05/17 09:46:13;;;;;;;9.73;2.35;;;;;;;27.33;38.73;101318.81;5053195;28;20025;-45
2022/05/17 09:52:38;;;;;;;8.57;2.80;;;;;;;27.38;38.66;101319.72;5050225;28;20037;-44
2022/05/17 09:54:43;;;;;;;5.28;2.00;;;;;;;27.35;38.94;101313.59;5046724;28;20041;-44
2022/05/17 09:57:18;;;;;;;5.72;2.10;;;;;;;27.43;38.65;101312.75;5054135;28;20033;-45
2022/05/17 09:59:48;;;;;;;8.15;2.50;;;;;;;27.39;38.62;101321.50;5036389;28;20546;-43
2022/05/17 10:02:38;;;;;;;6.00;2.15;;;;;;;27.43;38.61;101315.38;5052949;28;20029;-43
2022/05/17 10:05:27;;;;;;;6.50;2.22;;;;;;;27.49;38.45;101326.81;5052791;28;20021;-46
2022/05/17 10:08:02;;;;;;;8.55;2.30;;;;;;;27.32;38.53;101314.44;5052400;28;20028;-45
2022/05/17 10:10:35;;;;;;;10.10;2.85;;;;;;;27.32;38.59;101311.78;5052552;28;20055;-46
2022/05/17 10:13:17;;;;;;;6.97;2.45;;;;;;;27.29;38.74;101315.31;5052368;28;20410;-43
2022/05/17 10:15:49;;;;;;;6.60;2.72;;;;;;;27.34;38.61;101317.94;5052706;28;20427;-45
2022/05/17 10:18:36;;;;;;;7.00;2.30;;;;;;;27.47;38.27;101307.53;5053967;28;20048;-43
2022/05/17 10:21:27;;;;;;;4.50;1.85;;;;;;;27.46;38.42;101305.75;5053580;28;20036;-46
2022/05/17 10:24:33;;;;;;;4.32;1.98;;;;;;;27.47;38.47;101312.78;5052486;28;20045;-43
2022/05/17 10:27:22;;;;;;;9.23;2.30;;;;;;;27.45;38.49;101302.19;5049882;28;20109;-43
2022/05/17 10:29:57;;;;;;;7.55;1.98;;;;;;;27.48;38.38;101315.41;5053618;28;20055;-44
2022/05/17 10:33:03;;;;;;;8.80;2.25;;;;;;;27.55;38.20;101309.28;5052287;28;20387;-46
2022/05/17 10:35:36;;;;;;;5.10;2.45;;;;;;;27.36;38.29;101278.47;5044121;28;20029;-45
2022/05/17 10:38:14;;;;;;;11.63;2.30;;;;;;;27.47;38.23;101308.38;5052532;28;20025;-45
2022/05/17 10:40:46;;;;;;;10.77;2.42;;;;;;;27.45;38.23;101312.72;5052289;28;20475;-46
2022/05/17 10:43:18;;;;;;;9.27;2.85;;;;;;;27.40;38.46;101303.91;5052026;28;20112;-44
2022/05/17 10:45:51;;;;;;;12.05;2.80;;;;;;;27.51;38.31;101286.44;5035598;28;20025;-44
2022/05/17 10:48:40;;;;;;;6.05;1.85;;;;;;;27.42;38.25;101289.00;5052235;28;20028;-44
2022/05/17 10:51:16;;;;;;;5.18;1.88;;;;;;;27.54;38.09;101306.66;5052425;28;20083;-43
2022/05/17 10:53:44;;;;;;;7.53;2.10;;;;;;;27.54;38.08;101304.00;5051791;28;20112;-46
2022/05/17 10:56:20;;;;;;;8.40;2.20;;;;;;;27.53;38.15;101307.53;5052020;28;20026;-46
2022/05/17 10:59:14;;;;;;;7.22;2.15;;;;;;;27.59;37.98;101308.41;5051684;28;20025;-46
2022/05/17 11:02:10;;;;;;;4.57;1.80;;;;;;;27.60;38.01;101309.31;5044299;28;20120;-46
2022/05/17 11:05:03;;;;;;;4.45;2.25;;;;;;;27.52;37.93;101293.47;5062009;28;20525;-44
2022/05/17 11:08:10;;;;;;;4.82;2.22;;;;;;;27.67;37.95;101307.56;5044836;28;20094;-44
2022/05/17 11:11:07;;;;;;;5.65;2.17;;;;;;;27.52;38.37;101309.28;5049452;28;20071;-43
2022/05/17 11:13:55;;;;;;;8.75;2.67;;;;;;;27.48;38.54;101303.97;5062015;28;20040;-43
2022/05/17 11:16:46;;;;;;;5.93;1.77;;;;;;;27.46;38.31;101306.63;5042579;28;20067;-44
2022/05/17 11:19:29;;;;;;;8.40;2.92;;;;;;;27.40;38.49;101298.66;5053071;28;20021;-46
2022/05/17 11:22:02;;;;;;;8.25;2.72;;;;;;;27.34;38.78;101301.28;5053494;28;20112;-46
2022/05/17 11:24:50;;;;;;;9.10;2.75;;;;;;;27.38;38.67;101293.38;5035802;28;20048;-43
2022/05/17 11:27:21;;;;;;;6.20;2.42;;;;;;;27.33;38.66;101281.94;5052491;28;20478;-43
2022/05/17 11:30:27;;;;;;;14.85;3.10;;;;;;;27.41;38.56;101264.44;5051864;28;20043;-44
2022/05/17 11:33:34;;;;;;;8.13;2.70;;;;;;;27.43;38.48;101285.50;5045225;28;20470;-46
2022/05/17 11:36:05;;;;;;;7.38;2.45;;;;;;;27.38;38.56;101284.63;5052759;28;20535;-44
2022/05/17 11:38:33;;;;;;;7.22;2.83;;;;;;;27.35;38.73;101288.09;5035443;28;20037;-46
2022/05/17 11:41:04;;;;;;;7.18;2.17;;;;;;;27.36;38.78;101263.53;5052926;28;20103;-46
2022/05/17 11:43:51;;;;;;;8.75;2.63;;;;;;;27.40;38.57;101278.47;5068466;28;20033;-46
2022/05/17 11:46:30;;;;;;;8.27;2.20;;;;;;;27.35;38.99;101276.69;5046444;28;20501;-46
2022/05/17 11:49:17;;;;;;;9.75;2.47;;;;;;;27.35;38.89;101277.56;5054675;28;20043;-48
2022/05/17 11:52:08;;;;;;;6.15;2.28;;;;;;;27.25;39.29;101257.34;5056501;28;20025;-45
2022/05/17 11:54:56;;;;;;;9.68;2.40;;;;;;;27.33;39.30;101278.44;5055086;28;20364;-44
2022/05/17 11:57:25;;;;;;;12.05;2.67;;;;;;;27.30;39.29;101293.34;5055709;28;20070;-46